Lillian, Texas
Current Conditions -  °F | °C
As of 1:47 PM on Wednesday 28 Jan 2015 (Local Time) from KFWS Reporting Station
Clear Clear  
Wind Chill: 79°   Ceiling: Unl
Heat Index: 79°   Visibility: 20mi
Dew Point: 41°   Wind: 15mph
Humidity: 26%   Direction: 190°S
Pressure: 30.02"   Gusts: NA
Location:  32.51°N, 97.19°W
Report Text: KFWS 281947Z 19013KT 20SM CLR 26/05 A3002
Loading
Personal Weather Stations






























Interactive Weather Map New forecast layout! Learn more

10-Day Weather Forecast

Advertisements
Track Severe Weather on mobile